Time;durP1;ratioP1;P1;durP2;ratioP2;P2;SDS_P1;SDS_P2;PMS_P1;PMS_P2;Temp;Humidity;BMP_temperature;BMP_pressure;BME280_temperature;BME280_humidity;BME280_pressure;Samples;Min_cycle;Max_cycle;Signal;HPM_P1;HPM_P2
2021/08/01 00:01:45;;;;;;;;;;;;;;;;;;5029210;28;19979;-72
2021/08/01 00:04:12;;;;;;;;;;;;;;;;;;5027767;28;19943;-73
2021/08/01 00:06:41;;;;;;;;;;;;;;;;;;5028043;28;21268;-72
2021/08/01 00:09:08;;;;;;;;;;;;;;;;;;5023164;28;20307;-73
2021/08/01 00:11:35;;;;;;;;;;;;;;;;;;5028755;28;19925;-73
2021/08/01 00:14:02;;;;;;;;;;;;;;;;;;5027505;28;19929;-73
2021/08/01 00:16:29;;;;;;;;;;;;;;;;;;5025457;28;19925;-73
2021/08/01 00:18:56;;;;;;;;;;;;;;;;;;5030872;28;19961;-72
2021/08/01 00:21:23;;;;;;;;;;;;;;;;;;5029357;28;19925;-72
2021/08/01 00:23:50;;;;;;;;;;;;;;;;;;5029615;28;19925;-72
2021/08/01 00:26:17;;;;;;;;;;;;;;;;;;5020782;28;19925;-72
2021/08/01 00:28:44;;;;;;;;;;;;;;;;;;5020842;28;19929;-72
2021/08/01 00:31:11;;;;;;;;;;;;;;;;;;5025146;28;19940;-72
2021/08/01 00:33:38;;;;;;;;;;;;;;;;;;5020359;28;20012;-72
2021/08/01 00:36:05;;;;;;;;;;;;;;;;;;5021754;28;20301;-72
2021/08/01 00:38:32;;;;;;;;;;;;;;;;;;5022598;28;19987;-72
2021/08/01 00:41:01;;;;;;;;;;;;;;;;;;5024925;28;20016;-72
2021/08/01 00:43:28;;;;;;;;;;;;;;;;;;5026772;28;20335;-71
2021/08/01 00:45:55;;;;;;;;;;;;;;;;;;5027690;28;20309;-73
2021/08/01 00:48:23;;;;;;;;;;;;;;;;;;5013986;28;19925;-72
2021/08/01 00:50:50;;;;;;;;;;;;;;;;;;5023868;28;19932;-72
2021/08/01 00:53:17;;;;;;;;;;;;;;;;;;5027175;28;19933;-71
2021/08/01 00:55:44;;;;;;;;;;;;;;;;;;5023444;28;19929;-73
2021/08/01 00:58:11;;;;;;;;;;;;;;;;;;5027177;28;19925;-73
2021/08/01 01:00:54;;;;;;;;;;;;;;;;;;5023615;28;19936;-73
2021/08/01 01:03:21;;;;;;;;;;;;;;;;;;5027600;28;19929;-74
2021/08/01 01:05:48;;;;;;;;;;;;;;;;;;5022375;28;20279;-72
2021/08/01 01:08:15;;;;;;;;;;;;;;;;;;5031369;28;20432;-73
2021/08/01 01:10:42;;;;;;;;;;;;;;;;;;5022628;28;19925;-73
2021/08/01 01:13:10;;;;;;;;;;;;;;;;;;5021661;28;20028;-72
2021/08/01 01:15:37;;;;;;;;;;;;;;;;;;5019815;28;19979;-73
2021/08/01 01:18:04;;;;;;;;;;;;;;;;;;5026094;28;20008;-72
2021/08/01 01:20:31;;;;;;;;;;;;;;;;;;5024289;28;19932;-73
2021/08/01 01:22:58;;;;;;;;;;;;;;;;;;5028431;28;19925;-72
2021/08/01 01:25:25;;;;;;;;;;;;;;;;;;5019728;28;19968;-73
2021/08/01 01:27:52;;;;;;;;;;;;;;;;;;5015291;28;19932;-72
2021/08/01 01:30:19;;;;;;;;;;;;;;;;;;5020016;28;20456;-74
2021/08/01 01:32:46;;;;;;;;;;;;;;;;;;5021002;28;19931;-73
2021/08/01 01:35:13;;;;;;;;;;;;;;;;;;5026303;28;19932;-73
2021/08/01 01:37:40;;;;;;;;;;;;;;;;;;5024383;28;19939;-73
2021/08/01 01:40:07;;;;;;;;;;;;;;;;;;5019027;28;19925;-73
2021/08/01 01:42:34;;;;;;;;;;;;;;;;;;5020456;28;20391;-72
2021/08/01 01:45:01;;;;;;;;;;;;;;;;;;5022944;28;20036;-73
2021/08/01 01:47:28;;;;;;;;;;;;;;;;;;5025634;28;19961;-73
2021/08/01 01:49:55;;;;;;;;;;;;;;;;;;5019615;28;19929;-73
2021/08/01 01:52:22;;;;;;;;;;;;;;;;;;5018710;28;20279;-73
2021/08/01 01:54:49;;;;;;;;;;;;;;;;;;5027872;28;19932;-73
2021/08/01 01:57:16;;;;;;;;;;;;;;;;;;5017712;28;20007;-73
2021/08/01 01:59:43;;;;;;;;;;;;;;;;;;5026020;28;20020;-74
2021/08/01 02:02:10;;;;;;;;;;;;;;;;;;5017114;28;19932;-73
2021/08/01 02:04:37;;;;;;;;;;;;;;;;;;5024586;28;19956;-73
2021/08/01 02:07:04;;;;;;;;;;;;;;;;;;5028899;28;19925;-74
2021/08/01 02:09:31;;;;;;;;;;;;;;;;;;5021933;28;19925;-73
2021/08/01 02:11:58;;;;;;;;;;;;;;;;;;5023904;28;20020;-73
2021/08/01 02:14:25;;;;;;;;;;;;;;;;;;5031169;28;20019;-73
2021/08/01 02:16:52;;;;;;;;;;;;;;;;;;5023680;28;20431;-72
2021/08/01 02:19:19;;;;;;;;;;;;;;;;;;5025065;28;19925;-74
2021/08/01 02:21:46;;;;;;;;;;;;;;;;;;5026691;28;19925;-73
2021/08/01 02:24:13;;;;;;;;;;;;;;;;;;5025874;28;19925;-73
2021/08/01 02:26:40;;;;;;;;;;;;;;;;;;5029595;28;19932;-73
2021/08/01 02:29:07;;;;;;;;;;;;;;;;;;5026240;28;20019;-72
2021/08/01 02:31:34;;;;;;;;;;;;;;;;;;5022918;28;20012;-72
2021/08/01 02:34:01;;;;;;;;;;;;;;;;;;5029677;28;19957;-72
2021/08/01 02:36:28;;;;;;;;;;;;;;;;;;5027314;28;19925;-72
2021/08/01 02:38:55;;;;;;;;;;;;;;;;;;5025205;28;19933;-72
2021/08/01 02:41:22;;;;;;;;;;;;;;;;;;5019342;28;19925;-72
2021/08/01 02:43:49;;;;;;;;;;;;;;;;;;5022554;28;19933;-72
2021/08/01 02:46:16;;;;;;;;;;;;;;;;;;5031603;28;19936;-73
2021/08/01 02:48:43;;;;;;;;;;;;;;;;;;5032112;28;20377;-73
2021/08/01 02:51:10;;;;;;;;;;;;;;;;;;5023173;28;19925;-72
2021/08/01 02:53:37;;;;;;;;;;;;;;;;;;5028384;28;19936;-72
2021/08/01 02:56:04;;;;;;;;;;;;;;;;;;5026266;28;19925;-72
2021/08/01 02:58:31;;;;;;;;;;;;;;;;;;5028914;28;19925;-73
2021/08/01 03:00:58;;;;;;;;;;;;;;;;;;5026308;28;20384;-72
2021/08/01 03:03:25;;;;;;;;;;;;;;;;;;5023990;28;19929;-73
2021/08/01 03:05:52;;;;;;;;;;;;;;;;;;5021243;28;20301;-73
2021/08/01 03:08:19;;;;;;;;;;;;;;;;;;5024163;28;19925;-72
2021/08/01 03:10:46;;;;;;;;;;;;;;;;;;5029239;28;19931;-72
2021/08/01 03:13:13;;;;;;;;;;;;;;;;;;5025954;28;19932;-72
2021/08/01 03:15:40;;;;;;;;;;;;;;;;;;5021038;28;19925;-73
2021/08/01 03:18:07;;;;;;;;;;;;;;;;;;5022146;28;19925;-72
2021/08/01 03:20:34;;;;;;;;;;;;;;;;;;5028537;28;20433;-72
2021/08/01 03:23:00;;;;;;;;;;;;;;;;;;5027638;28;19933;-72
2021/08/01 03:25:27;;;;;;;;;;;;;;;;;;5024440;28;19933;-71
2021/08/01 03:27:54;;;;;;;;;;;;;;;;;;5023436;28;19947;-72
2021/08/01 03:30:21;;;;;;;;;;;;;;;;;;5021024;28;20289;-72
2021/08/01 03:32:48;;;;;;;;;;;;;;;;;;5023352;28;19925;-72
2021/08/01 03:35:15;;;;;;;;;;;;;;;;;;5022983;28;20377;-72
2021/08/01 03:37:42;;;;;;;;;;;;;;;;;;5020074;28;19925;-71
2021/08/01 03:40:09;;;;;;;;;;;;;;;;;;5046532;23;20285;-66
2021/08/01 03:42:36;;;;;;;;;;;;;;;;;;5040650;28;19932;-66
2021/08/01 03:45:03;;;;;;;;;;;;;;;;;;5045566;28;19933;-66
2021/08/01 03:47:30;;;;;;;;;;;;;;;;;;5046529;28;20295;-66
2021/08/01 03:49:57;;;;;;;;;;;;;;;;;;5043361;28;19939;-66
2021/08/01 03:52:24;;;;;;;;;;;;;;;;;;5046417;28;19932;-66
2021/08/01 03:54:50;;;;;;;;;;;;;;;;;;5049956;28;20024;-66
2021/08/01 03:57:17;;;;;;;;;;;;;;;;;;5048265;28;19925;-66
2021/08/01 03:59:44;;;;;;;;;;;;;;;;;;5042494;28;20285;-66
2021/08/01 04:02:12;;;;;;;;;;;;;;;;;;5047703;28;19924;-66
2021/08/01 04:04:39;;;;;;;;;;;;;;;;;;5041548;28;19925;-66
2021/08/01 04:07:06;;;;;;;;;;;;;;;;;;5048412;28;19931;-66
2021/08/01 04:09:33;;;;;;;;;;;;;;;;;;5041772;28;19929;-66
2021/08/01 04:12:00;;;;;;;;;;;;;;;;;;5043596;28;19932;-66
2021/08/01 04:14:29;;;;;;;;;;;;;;;;;;5045095;28;20004;-66
2021/08/01 04:16:56;;;;;;;;;;;;;;;;;;5045153;28;20018;-66
2021/08/01 04:19:23;;;;;;;;;;;;;;;;;;5033961;28;19929;-66
2021/08/01 04:21:50;;;;;;;;;;;;;;;;;;5040144;28;19929;-66
2021/08/01 04:24:17;;;;;;;;;;;;;;;;;;5045481;28;19924;-66
2021/08/01 04:26:44;;;;;;;;;;;;;;;;;;5044214;28;19925;-66
2021/08/01 04:29:11;;;;;;;;;;;;;;;;;;5041364;28;19926;-66
2021/08/01 04:31:38;;;;;;;;;;;;;;;;;;5044941;28;19928;-66
2021/08/01 04:34:05;;;;;;;;;;;;;;;;;;5043455;28;19933;-66
2021/08/01 04:36:31;;;;;;;;;;;;;;;;;;5046568;28;19925;-66
2021/08/01 04:38:58;;;;;;;;;;;;;;;;;;5042688;28;20370;-66
2021/08/01 04:41:25;;;;;;;;;;;;;;;;;;5038573;28;19925;-66
2021/08/01 04:43:52;;;;;;;;;;;;;;;;;;5044836;28;19925;-66
2021/08/01 04:46:19;;;;;;;;;;;;;;;;;;5045953;28;19932;-66
2021/08/01 04:48:46;;;;;;;;;;;;;;;;;;5043742;28;19943;-66
2021/08/01 04:51:13;;;;;;;;;;;;;;;;;;5039613;28;19929;-65
2021/08/01 04:53:40;;;;;;;;;;;;;;;;;;5048977;28;19931;-65
2021/08/01 04:56:07;;;;;;;;;;;;;;;;;;5045936;28;19929;-65
2021/08/01 04:58:34;;;;;;;;;;;;;;;;;;5043659;28;19932;-65
2021/08/01 05:01:01;;;;;;;;;;;;;;;;;;5036384;28;19932;-65
2021/08/01 05:03:27;;;;;;;;;;;;;;;;;;5044486;28;19947;-65
2021/08/01 05:05:54;;;;;;;;;;;;;;;;;;5040325;28;19925;-65
2021/08/01 05:08:22;;;;;;;;;;;;;;;;;;5038313;28;19925;-65
2021/08/01 05:10:49;;;;;;;;;;;;;;;;;;5042760;28;19924;-66
2021/08/01 05:13:16;;;;;;;;;;;;;;;;;;5047891;28;19925;-66
2021/08/01 05:15:44;;;;;;;;;;;;;;;;;;5039252;28;19943;-66
2021/08/01 05:18:11;;;;;;;;;;;;;;;;;;5040495;28;19925;-66
2021/08/01 05:20:38;;;;;;;;;;;;;;;;;;5040038;28;20369;-66
2021/08/01 05:23:05;;;;;;;;;;;;;;;;;;5044877;28;19940;-66
2021/08/01 05:25:32;;;;;;;;;;;;;;;;;;5043621;28;20340;-66
2021/08/01 05:27:59;;;;;;;;;;;;;;;;;;5046907;28;19925;-66
2021/08/01 05:30:26;;;;;;;;;;;;;;;;;;5047067;28;20016;-66
2021/08/01 05:32:53;;;;;;;;;;;;;;;;;;5046634;28;19940;-65
2021/08/01 05:35:20;;;;;;;;;;;;;;;;;;5048555;28;19933;-65
2021/08/01 05:37:47;;;;;;;;;;;;;;;;;;5047657;28;19924;-65
2021/08/01 05:40:13;;;;;;;;;;;;;;;;;;5040441;28;20412;-65
2021/08/01 05:42:40;;;;;;;;;;;;;;;;;;5048014;28;19932;-65
2021/08/01 05:45:07;;;;;;;;;;;;;;;;;;5045179;28;19925;-66
2021/08/01 05:47:34;;;;;;;;;;;;;;;;;;5046406;28;19944;-66
2021/08/01 05:50:01;;;;;;;;;;;;;;;;;;5039921;28;19925;-66
2021/08/01 05:52:28;;;;;;;;;;;;;;;;;;5045412;28;20419;-66
2021/08/01 05:54:55;;;;;;;;;;;;;;;;;;5041842;28;19928;-66
2021/08/01 05:57:22;;;;;;;;;;;;;;;;;;5046285;28;19925;-66
2021/08/01 05:59:49;;;;;;;;;;;;;;;;;;5042393;28;19926;-66
2021/08/01 06:02:16;;;;;;;;;;;;;;;;;;5036560;28;20024;-66
2021/08/01 06:04:43;;;;;;;;;;;;;;;;;;5044003;28;19935;-66
2021/08/01 06:07:10;;;;;;;;;;;;;;;;;;5034157;28;19955;-66
2021/08/01 06:09:37;;;;;;;;;;;;;;;;;;5042992;28;19928;-66
2021/08/01 06:12:05;;;;;;;;;;;;;;;;;;5040802;28;20336;-66
2021/08/01 06:14:32;;;;;;;;;;;;;;;;;;5047866;28;20399;-66
2021/08/01 06:16:59;;;;;;;;;;;;;;;;;;5043668;28;19936;-66
2021/08/01 06:19:26;;;;;;;;;;;;;;;;;;5047842;28;19925;-66
2021/08/01 06:21:53;;;;;;;;;;;;;;;;;;5042197;28;19933;-66
2021/08/01 06:24:20;;;;;;;;;;;;;;;;;;5036834;28;20396;-66
2021/08/01 06:26:47;;;;;;;;;;;;;;;;;;5037708;28;19932;-66
2021/08/01 06:29:15;;;;;;;;;;;;;;;;;;5035839;28;19925;-66
2021/08/01 06:31:42;;;;;;;;;;;;;;;;;;5040102;28;19925;-66
2021/08/01 06:34:09;;;;;;;;;;;;;;;;;;5040276;28;20024;-66
2021/08/01 06:36:36;;;;;;;;;;;;;;;;;;5041726;28;19947;-66
2021/08/01 06:39:03;;;;;;;;;;;;;;;;;;5041755;28;19925;-65
2021/08/01 06:41:30;;;;;;;;;;;;;;;;;;5044732;28;20038;-65
2021/08/01 06:43:57;;;;;;;;;;;;;;;;;;5040362;28;19925;-65
2021/08/01 06:46:23;;;;;;;;;;;;;;;;;;5044854;28;19951;-65
2021/08/01 06:48:50;;;;;;;;;;;;;;;;;;5039193;28;19925;-65
2021/08/01 06:51:17;;;;;;;;;;;;;;;;;;5032585;28;19925;-64
2021/08/01 06:53:44;;;;;;;;;;;;;;;;;;5047000;28;19933;-64
2021/08/01 06:56:11;;;;;;;;;;;;;;;;;;5049269;28;19924;-64
2021/08/01 06:58:38;;;;;;;;;;;;;;;;;;5046369;28;19924;-65
2021/08/01 07:01:05;;;;;;;;;;;;;;;;;;5046010;28;19924;-63
2021/08/01 07:03:32;;;;;;;;;;;;;;;;;;5045723;28;20393;-64
2021/08/01 07:05:59;;;;;;;;;;;;;;;;;;5047569;28;19948;-63
2021/08/01 07:08:26;;;;;;;;;;;;;;;;;;5050543;28;19968;-63
2021/08/01 07:10:53;;;;;;;;;;;;;;;;;;5046151;28;20008;-63
2021/08/01 07:13:20;;;;;;;;;;;;;;;;;;5040379;28;19932;-64
2021/08/01 07:15:48;;;;;;;;;;;;;;;;;;5047633;28;19932;-64
2021/08/01 07:18:15;;;;;;;;;;;;;;;;;;5050295;28;19928;-64
2021/08/01 07:20:42;;;;;;;;;;;;;;;;;;5048432;28;19925;-64
2021/08/01 07:23:09;;;;;;;;;;;;;;;;;;5053465;28;19932;-64
2021/08/01 07:25:36;;;;;;;;;;;;;;;;;;5049577;28;19935;-64
2021/08/01 07:28:04;;;;;;;;;;;;;;;;;;5046230;28;19928;-64
2021/08/01 07:30:31;;;;;;;;;;;;;;;;;;5046093;28;19925;-65
2021/08/01 07:32:58;;;;;;;;;;;;;;;;;;5043619;28;19931;-65
2021/08/01 07:35:25;;;;;;;;;;;;;;;;;;5045329;28;19940;-65
2021/08/01 07:37:52;;;;;;;;;;;;;;;;;;5042436;28;19925;-65
2021/08/01 07:40:19;;;;;;;;;;;;;;;;;;5046331;28;19925;-65
2021/08/01 07:42:46;;;;;;;;;;;;;;;;;;5047878;28;19924;-65
2021/08/01 07:45:22;;;;;;;;;;;;;;;;;;5045752;28;19925;-66
2021/08/01 07:47:49;;;;;;;;;;;;;;;;;;5049376;28;19939;-64
2021/08/01 07:50:16;;;;;;;;;;;;;;;;;;5047627;28;19925;-64
2021/08/01 07:52:43;;;;;;;;;;;;;;;;;;5046193;28;19928;-64
2021/08/01 07:55:14;;;;;;;;;;;;;;;;;;5047288;28;20128;-65
2021/08/01 07:57:41;;;;;;;;;;;;;;;;;;5046180;28;19990;-65
2021/08/01 08:00:08;;;;;;;;;;;;;;;;;;5037752;28;19928;-67
2021/08/01 08:02:35;;;;;;;;;;;;;;;;;;5037571;28;19929;-65
2021/08/01 08:05:02;;;;;;;;;;;;;;;;;;5040717;28;20124;-66
2021/08/01 08:07:29;;;;;;;;;;;;;;;;;;5045481;28;19925;-64
2021/08/01 08:09:56;;;;;;;;;;;;;;;;;;5045072;28;19924;-64
2021/08/01 08:12:23;;;;;;;;;;;;;;;;;;5049527;28;20300;-64
2021/08/01 08:14:51;;;;;;;;;;;;;;;;;;5047393;28;19952;-64
2021/08/01 08:17:18;;;;;;;;;;;;;;;;;;5045068;28;19924;-64
2021/08/01 08:19:45;;;;;;;;;;;;;;;;;;5044724;28;19924;-64
2021/08/01 08:22:12;;;;;;;;;;;;;;;;;;5047064;28;19928;-64
2021/08/01 08:24:39;;;;;;;;;;;;;;;;;;5047076;28;19925;-64
2021/08/01 08:27:06;;;;;;;;;;;;;;;;;;5050728;28;19925;-64
2021/08/01 08:29:33;;;;;;;;;;;;;;;;;;5046030;28;19925;-64
2021/08/01 08:32:00;;;;;;;;;;;;;;;;;;5049162;28;19925;-64
2021/08/01 08:34:27;;;;;;;;;;;;;;;;;;5047970;28;20024;-64
2021/08/01 08:36:54;;;;;;;;;;;;;;;;;;5048674;28;20027;-64
2021/08/01 08:39:21;;;;;;;;;;;;;;;;;;5043827;28;19960;-64
2021/08/01 08:41:47;;;;;;;;;;;;;;;;;;5045752;28;19931;-64
2021/08/01 08:44:14;;;;;;;;;;;;;;;;;;5049638;28;19944;-64
2021/08/01 08:46:41;;;;;;;;;;;;;;;;;;5048248;28;20320;-64
2021/08/01 08:49:09;;;;;;;;;;;;;;;;;;5034859;28;19932;-64
2021/08/01 08:51:36;;;;;;;;;;;;;;;;;;5042042;28;19951;-64
2021/08/01 08:54:03;;;;;;;;;;;;;;;;;;5048265;28;19925;-64
2021/08/01 08:56:30;;;;;;;;;;;;;;;;;;5046289;28;20289;-64
2021/08/01 08:58:57;;;;;;;;;;;;;;;;;;5042002;28;20413;-63
2021/08/01 09:01:23;;;;;;;;;;;;;;;;;;5047879;28;19928;-64
2021/08/01 09:03:50;;;;;;;;;;;;;;;;;;5050118;28;19924;-65
2021/08/01 09:06:17;;;;;;;;;;;;;;;;;;5049213;28;19935;-64
2021/08/01 09:08:44;;;;;;;;;;;;;;;;;;5040740;28;19931;-64
2021/08/01 09:11:11;;;;;;;;;;;;;;;;;;5044737;28;20314;-67
2021/08/01 09:13:38;;;;;;;;;;;;;;;;;;5046089;28;20402;-66
2021/08/01 09:16:05;;;;;;;;;;;;;;;;;;5044084;28;19931;-66
2021/08/01 09:18:32;;;;;;;;;;;;;;;;;;5043892;28;20323;-66
2021/08/01 09:20:59;;;;;;;;;;;;;;;;;;5037891;28;19925;-67
2021/08/01 09:23:26;;;;;;;;;;;;;;;;;;5050132;28;19929;-68
2021/08/01 09:25:53;;;;;;;;;;;;;;;;;;5045485;28;19925;-67
2021/08/01 09:28:21;;;;;;;;;;;;;;;;;;5047559;28;20373;-65
2021/08/01 09:30:48;;;;;;;;;;;;;;;;;;5046031;28;19925;-64
2021/08/01 09:33:17;;;;;;;;;;;;;;;;;;5047880;28;19928;-64
2021/08/01 09:35:44;;;;;;;;;;;;;;;;;;5048965;28;19932;-65
2021/08/01 09:38:11;;;;;;;;;;;;;;;;;;5038096;28;19924;-65
2021/08/01 09:40:37;;;;;;;;;;;;;;;;;;5052383;22;20123;-68
2021/08/01 09:43:04;;;;;;;;;;;;;;;;;;5041128;28;19985;-68
2021/08/01 09:45:31;;;;;;;;;;;;;;;;;;5040436;28;19925;-68
2021/08/01 09:47:58;;;;;;;;;;;;;;;;;;5043422;28;19926;-67
2021/08/01 09:50:25;;;;;;;;;;;;;;;;;;5041987;28;20428;-68
2021/08/01 09:52:52;;;;;;;;;;;;;;;;;;5055157;28;20027;-67
2021/08/01 09:55:19;;;;;;;;;;;;;;;;;;5057844;28;20240;-67
2021/08/01 09:57:46;;;;;;;;;;;;;;;;;;5059036;28;19925;-66
2021/08/01 10:00:13;;;;;;;;;;;;;;;;;;5055565;28;19947;-66
2021/08/01 10:02:40;;;;;;;;;;;;;;;;;;5047030;28;19931;-66
2021/08/01 10:05:07;;;;;;;;;;;;;;;;;;5046570;28;20310;-68
2021/08/01 10:07:34;;;;;;;;;;;;;;;;;;5051479;28;19925;-67
2021/08/01 10:10:01;;;;;;;;;;;;;;;;;;5046183;28;19925;-65
2021/08/01 10:12:28;;;;;;;;;;;;;;;;;;5050488;28;19925;-65
2021/08/01 10:14:55;;;;;;;;;;;;;;;;;;5045486;28;20031;-65
2021/08/01 10:17:22;;;;;;;;;;;;;;;;;;5041720;28;19932;-67
2021/08/01 10:19:49;;;;;;;;;;;;;;;;;;5044821;28;19970;-68
2021/08/01 10:22:16;;;;;;;;;;;;;;;;;;5047465;28;19925;-68
2021/08/01 10:24:43;;;;;;;;;;;;;;;;;;5047105;28;20422;-67
2021/08/01 10:27:10;;;;;;;;;;;;;;;;;;5049206;28;20015;-67
2021/08/01 10:29:37;;;;;;;;;;;;;;;;;;5046615;28;20411;-67
2021/08/01 10:32:04;;;;;;;;;;;;;;;;;;5048259;28;19925;-66
2021/08/01 10:34:35;;;;;;;;;;;;;;;;;;5049464;28;19925;-68
2021/08/01 10:37:02;;;;;;;;;;;;;;;;;;5049084;28;20380;-67
2021/08/01 10:39:29;;;;;;;;;;;;;;;;;;5047345;28;19939;-68
2021/08/01 10:41:56;;;;;;;;;;;;;;;;;;5045756;28;19925;-68
2021/08/01 10:44:23;;;;;;;;;;;;;;;;;;5043866;28;19925;-68
2021/08/01 10:46:50;;;;;;;;;;;;;;;;;;5044346;28;20404;-68
2021/08/01 10:49:17;;;;;;;;;;;;;;;;;;5041778;28;19925;-68
2021/08/01 10:51:43;;;;;;;;;;;;;;;;;;5045620;28;19925;-68
2021/08/01 10:54:10;;;;;;;;;;;;;;;;;;5046679;28;20366;-68
2021/08/01 10:56:37;;;;;;;;;;;;;;;;;;5050392;28;19932;-68
2021/08/01 10:59:04;;;;;;;;;;;;;;;;;;5047709;28;19932;-68
2021/08/01 11:01:32;;;;;;;;;;;;;;;;;;5047111;28;19932;-65
2021/08/01 11:03:59;;;;;;;;;;;;;;;;;;5047599;28;20310;-68
2021/08/01 11:06:26;;;;;;;;;;;;;;;;;;5051738;28;19929;-68
2021/08/01 11:08:53;;;;;;;;;;;;;;;;;;5048282;28;19931;-68
2021/08/01 11:11:20;;;;;;;;;;;;;;;;;;5045395;28;20027;-68
2021/08/01 11:13:47;;;;;;;;;;;;;;;;;;5050554;28;19925;-68
2021/08/01 11:16:14;;;;;;;;;;;;;;;;;;5048075;28;19925;-68
2021/08/01 11:18:41;;;;;;;;;;;;;;;;;;5046100;28;19925;-68
2021/08/01 11:21:09;;;;;;;;;;;;;;;;;;5049894;28;20336;-67
2021/08/01 11:23:36;;;;;;;;;;;;;;;;;;5054121;28;19983;-67
2021/08/01 11:26:03;;;;;;;;;;;;;;;;;;5051379;28;19935;-67
2021/08/01 11:28:32;;;;;;;;;;;;;;;;;;5046866;28;19963;-67
2021/08/01 11:31:01;;;;;;;;;;;;;;;;;;5048384;28;20002;-67
2021/08/01 11:33:28;;;;;;;;;;;;;;;;;;5046263;28;20295;-67
2021/08/01 11:35:55;;;;;;;;;;;;;;;;;;5053516;28;19924;-66
2021/08/01 11:38:22;;;;;;;;;;;;;;;;;;5049826;28;20023;-66
2021/08/01 11:40:49;;;;;;;;;;;;;;;;;;5047876;28;20184;-67
2021/08/01 11:43:16;;;;;;;;;;;;;;;;;;5043947;28;19925;-67
2021/08/01 11:45:43;;;;;;;;;;;;;;;;;;5045071;28;20406;-67
2021/08/01 11:48:10;;;;;;;;;;;;;;;;;;5048562;28;20373;-67
2021/08/01 11:50:37;;;;;;;;;;;;;;;;;;5045623;28;19924;-67
2021/08/01 11:53:03;;;;;;;;;;;;;;;;;;5044706;28;19970;-67
2021/08/01 11:55:30;;;;;;;;;;;;;;;;;;5047210;28;20172;-67
2021/08/01 11:57:57;;;;;;;;;;;;;;;;;;5049826;28;19931;-67
2021/08/01 12:00:25;;;;;;;;;;;;;;;;;;5044860;28;19929;-67
2021/08/01 12:02:51;;;;;;;;;;;;;;;;;;5046177;28;19925;-66
2021/08/01 12:05:18;;;;;;;;;;;;;;;;;;5043105;28;19928;-66
2021/08/01 12:07:47;;;;;;;;;;;;;;;;;;5044987;28;19931;-66
2021/08/01 12:10:14;;;;;;;;;;;;;;;;;;5043443;28;19933;-66
2021/08/01 12:12:41;;;;;;;;;;;;;;;;;;5049783;28;19971;-67
2021/08/01 12:15:08;;;;;;;;;;;;;;;;;;5047702;28;19925;-66
2021/08/01 12:17:35;;;;;;;;;;;;;;;;;;5045425;28;20316;-66
2021/08/01 12:20:02;;;;;;;;;;;;;;;;;;5046819;28;19947;-66
2021/08/01 12:22:29;;;;;;;;;;;;;;;;;;5044758;28;19944;-66
2021/08/01 12:24:56;;;;;;;;;;;;;;;;;;5043003;28;19931;-67
2021/08/01 12:27:23;;;;;;;;;;;;;;;;;;5044947;28;19928;-67
2021/08/01 12:29:50;;;;;;;;;;;;;;;;;;5043683;28;19940;-66
2021/08/01 12:32:17;;;;;;;;;;;;;;;;;;5041121;28;20377;-68
2021/08/01 12:34:44;;;;;;;;;;;;;;;;;;5044912;28;20119;-67
2021/08/01 12:37:11;;;;;;;;;;;;;;;;;;5045231;28;19935;-67
2021/08/01 12:39:38;;;;;;;;;;;;;;;;;;5044461;28;20312;-67
2021/08/01 12:42:06;;;;;;;;;;;;;;;;;;5039027;28;20285;-67
2021/08/01 12:44:33;;;;;;;;;;;;;;;;;;5044984;28;20384;-67
2021/08/01 12:47:00;;;;;;;;;;;;;;;;;;5043927;28;19924;-67
2021/08/01 12:49:27;;;;;;;;;;;;;;;;;;5041188;28;19929;-67
2021/08/01 12:51:54;;;;;;;;;;;;;;;;;;5039359;28;19925;-69
2021/08/01 12:54:21;;;;;;;;;;;;;;;;;;5050278;28;19929;-68
2021/08/01 12:56:48;;;;;;;;;;;;;;;;;;5044092;28;19931;-68
2021/08/01 12:59:15;;;;;;;;;;;;;;;;;;5043841;28;19933;-68
2021/08/01 13:01:43;;;;;;;;;;;;;;;;;;5043486;28;20317;-68
2021/08/01 13:04:11;;;;;;;;;;;;;;;;;;5043137;28;19929;-68
2021/08/01 13:06:38;;;;;;;;;;;;;;;;;;5043962;28;19928;-68
2021/08/01 13:09:06;;;;;;;;;;;;;;;;;;5043704;28;19925;-68
2021/08/01 13:11:33;;;;;;;;;;;;;;;;;;5042799;28;20024;-68
2021/08/01 13:14:00;;;;;;;;;;;;;;;;;;5043862;28;19994;-68
2021/08/01 13:16:27;;;;;;;;;;;;;;;;;;5042851;28;20392;-68
2021/08/01 13:18:54;;;;;;;;;;;;;;;;;;5047654;28;19925;-69
2021/08/01 13:21:21;;;;;;;;;;;;;;;;;;5044055;28;20373;-69
2021/08/01 13:23:48;;;;;;;;;;;;;;;;;;5043567;28;19925;-69
2021/08/01 13:26:16;;;;;;;;;;;;;;;;;;5044324;28;19925;-68
2021/08/01 13:28:43;;;;;;;;;;;;;;;;;;5043768;28;19928;-68
2021/08/01 13:31:11;;;;;;;;;;;;;;;;;;5045231;28;19925;-68
2021/08/01 13:33:38;;;;;;;;;;;;;;;;;;5045106;28;20008;-69
2021/08/01 13:36:05;;;;;;;;;;;;;;;;;;5047018;28;20204;-69
2021/08/01 13:38:32;;;;;;;;;;;;;;;;;;5045157;28;19931;-69
2021/08/01 13:40:59;;;;;;;;;;;;;;;;;;4981615;28;1766908;-69
2021/08/01 13:43:26;;;;;;;;;;;;;;;;;;5043013;28;19925;-67
2021/08/01 13:45:54;;;;;;;;;;;;;;;;;;5043125;28;19951;-68
2021/08/01 13:48:21;;;;;;;;;;;;;;;;;;5042720;28;19932;-68
2021/08/01 13:50:48;;;;;;;;;;;;;;;;;;5043955;28;19935;-67
2021/08/01 13:53:15;;;;;;;;;;;;;;;;;;5042799;28;19946;-69
2021/08/01 13:55:43;;;;;;;;;;;;;;;;;;5046858;28;19925;-68
2021/08/01 13:58:10;;;;;;;;;;;;;;;;;;5045473;28;19932;-68
2021/08/01 14:00:37;;;;;;;;;;;;;;;;;;5043542;28;19925;-67
2021/08/01 14:03:05;;;;;;;;;;;;;;;;;;5046023;28;19925;-68
2021/08/01 14:05:32;;;;;;;;;;;;;;;;;;5049251;28;19931;-68
2021/08/01 14:07:59;;;;;;;;;;;;;;;;;;5046317;28;19925;-68
2021/08/01 14:10:26;;;;;;;;;;;;;;;;;;5048471;28;19925;-68
2021/08/01 14:12:53;;;;;;;;;;;;;;;;;;5044406;28;19929;-69
2021/08/01 14:15:20;;;;;;;;;;;;;;;;;;5046654;28;20019;-68
2021/08/01 14:17:47;;;;;;;;;;;;;;;;;;5048347;28;20412;-68
2021/08/01 14:20:14;;;;;;;;;;;;;;;;;;5043082;28;19925;-68
2021/08/01 14:22:42;;;;;;;;;;;;;;;;;;5047119;28;19935;-68
2021/08/01 14:25:09;;;;;;;;;;;;;;;;;;5048949;28;19960;-69
2021/08/01 14:27:36;;;;;;;;;;;;;;;;;;5047801;28;19925;-68
2021/08/01 14:30:03;;;;;;;;;;;;;;;;;;5051973;28;19925;-68
2021/08/01 14:32:30;;;;;;;;;;;;;;;;;;5048022;28;19925;-68
2021/08/01 14:34:57;;;;;;;;;;;;;;;;;;5048465;28;19931;-68
2021/08/01 14:37:24;;;;;;;;;;;;;;;;;;5048790;28;19924;-68
2021/08/01 14:39:51;;;;;;;;;;;;;;;;;;5048844;28;19929;-68
2021/08/01 14:42:18;;;;;;;;;;;;;;;;;;5046652;28;19932;-68
2021/08/01 14:44:45;;;;;;;;;;;;;;;;;;5047179;28;20276;-68
2021/08/01 14:47:18;;;;;;;;;;;;;;;;;;5047879;28;19933;-68
2021/08/01 14:49:49;;;;;;;;;;;;;;;;;;5047975;28;20404;-68
2021/08/01 14:55:01;;;;;;;;;;;;;;;;;;5045924;28;19962;-68
2021/08/01 14:57:28;;;;;;;;;;;;;;;;;;5048744;28;19939;-68
2021/08/01 14:59:55;;;;;;;;;;;;;;;;;;5047180;28;19924;-68
2021/08/01 15:02:22;;;;;;;;;;;;;;;;;;5046534;28;19924;-69
2021/08/01 15:04:49;;;;;;;;;;;;;;;;;;5044154;28;20305;-69
2021/08/01 15:07:16;;;;;;;;;;;;;;;;;;5047487;28;19925;-69
2021/08/01 15:09:43;;;;;;;;;;;;;;;;;;5043213;28;20282;-69
2021/08/01 15:12:10;;;;;;;;;;;;;;;;;;5040856;28;19932;-68
2021/08/01 15:14:37;;;;;;;;;;;;;;;;;;5048147;28;20176;-68
2021/08/01 15:17:04;;;;;;;;;;;;;;;;;;5041735;28;19931;-68
2021/08/01 15:19:31;;;;;;;;;;;;;;;;;;5042950;28;19998;-68
2021/08/01 15:21:58;;;;;;;;;;;;;;;;;;5047300;28;19925;-68
2021/08/01 15:24:25;;;;;;;;;;;;;;;;;;5042797;28;20109;-69
2021/08/01 15:26:52;;;;;;;;;;;;;;;;;;5045741;28;20305;-68
2021/08/01 15:29:19;;;;;;;;;;;;;;;;;;5045377;28;19932;-68
2021/08/01 15:31:45;;;;;;;;;;;;;;;;;;5045019;28;19925;-68
2021/08/01 15:34:12;;;;;;;;;;;;;;;;;;5047988;28;19925;-68
2021/08/01 15:36:41;;;;;;;;;;;;;;;;;;5047621;28;20312;-68
2021/08/01 15:39:08;;;;;;;;;;;;;;;;;;5048172;28;20047;-68
2021/08/01 15:41:35;;;;;;;;;;;;;;;;;;5017067;22;19929;-66
2021/08/01 15:44:04;;;;;;;;;;;;;;;;;;4986569;28;19925;-66
2021/08/01 15:46:31;;;;;;;;;;;;;;;;;;4987442;28;19941;-66
2021/08/01 15:48:58;;;;;;;;;;;;;;;;;;4987124;28;20003;-66
2021/08/01 15:51:25;;;;;;;;;;;;;;;;;;4975856;28;19937;-67
2021/08/01 15:53:52;;;;;;;;;;;;;;;;;;4971118;28;19946;-66
2021/08/01 15:56:19;;;;;;;;;;;;;;;;;;4969649;28;19933;-66
2021/08/01 15:58:46;;;;;;;;;;;;;;;;;;4969180;28;20220;-66
2021/08/01 16:01:13;;;;;;;;;;;;;;;;;;4967272;28;19941;-66
2021/08/01 16:03:40;;;;;;;;;;;;;;;;;;4963925;28;19965;-66
2021/08/01 16:06:07;;;;;;;;;;;;;;;;;;4967515;28;20009;-67
2021/08/01 16:08:34;;;;;;;;;;;;;;;;;;4967125;28;19934;-64
2021/08/01 16:11:01;;;;;;;;;;;;;;;;;;4968050;28;19926;-64
2021/08/01 16:13:28;;;;;;;;;;;;;;;;;;4967782;28;19926;-66
2021/08/01 16:15:55;;;;;;;;;;;;;;;;;;4968690;28;19926;-65
2021/08/01 16:18:22;;;;;;;;;;;;;;;;;;4968032;28;19933;-66
2021/08/01 16:20:49;;;;;;;;;;;;;;;;;;4967650;28;20405;-66
2021/08/01 16:23:16;;;;;;;;;;;;;;;;;;4966738;28;19936;-66
2021/08/01 16:25:43;;;;;;;;;;;;;;;;;;4966484;28;19933;-65
2021/08/01 16:28:10;;;;;;;;;;;;;;;;;;4965894;28;19948;-65
2021/08/01 16:30:37;;;;;;;;;;;;;;;;;;4968592;28;20024;-65
2021/08/01 16:33:04;;;;;;;;;;;;;;;;;;4969788;28;20321;-65
2021/08/01 16:35:31;;;;;;;;;;;;;;;;;;4968241;28;19926;-64
2021/08/01 16:37:58;;;;;;;;;;;;;;;;;;4967304;28;19925;-65
2021/08/01 16:40:25;;;;;;;;;;;;;;;;;;4967270;28;19926;-66
2021/08/01 16:42:52;;;;;;;;;;;;;;;;;;4968678;28;19937;-66
2021/08/01 16:45:19;;;;;;;;;;;;;;;;;;4966493;28;20486;-66
2021/08/01 16:47:46;;;;;;;;;;;;;;;;;;4968601;28;19926;-67